createdAt,value
2023-10-06T00:02:33.955Z,11.47
2023-10-06T00:07:38.253Z,11.54
2023-10-06T00:12:41.230Z,11.66
2023-10-06T00:17:50.329Z,11.55
2023-10-06T00:22:56.481Z,11.54
2023-10-06T00:28:02.105Z,11.58
2023-10-06T00:33:06.911Z,11.57
2023-10-06T00:38:18.783Z,11.62
2023-10-06T00:43:38.664Z,11.57
2023-10-06T00:48:47.260Z,11.43
2023-10-06T00:53:54.020Z,11.49
2023-10-06T00:58:57.669Z,11.54
2023-10-06T01:04:12.990Z,11.51
2023-10-06T01:09:16.743Z,11.53
2023-10-06T01:14:28.780Z,11.47
2023-10-06T01:19:34.870Z,11.40
2023-10-06T01:24:37.882Z,11.37
2023-10-06T01:29:43.606Z,11.29
2023-10-06T01:34:47.052Z,11.26
2023-10-06T01:39:50.110Z,11.26
2023-10-06T01:44:52.892Z,11.18
2023-10-06T01:49:56.041Z,11.22
2023-10-06T01:55:04.843Z,11.10
2023-10-06T02:00:15.987Z,11.04
2023-10-06T02:05:18.678Z,11.04
2023-10-06T02:10:21.516Z,11.04
2023-10-06T02:15:24.456Z,11.03
2023-10-06T02:20:27.235Z,11.05
2023-10-06T02:25:30.554Z,11.05
2023-10-06T02:30:38.920Z,11.12
2023-10-06T02:35:47.684Z,11.04
2023-10-06T02:40:50.402Z,10.91
2023-10-06T02:45:53.227Z,11.05
2023-10-06T02:50:56.597Z,11.12
2023-10-06T02:56:08.670Z,11.09
2023-10-06T03:01:13.118Z,11.00
2023-10-06T03:06:18.973Z,11.15
2023-10-06T03:11:24.926Z,10.95
2023-10-06T03:16:28.239Z,11.04
2023-10-06T03:21:32.056Z,11.00
2023-10-06T03:26:36.131Z,11.12
2023-10-06T03:31:46.653Z,11.09
2023-10-06T03:36:53.585Z,11.19
2023-10-06T03:42:02.617Z,11.41
2023-10-06T03:47:09.676Z,11.47
2023-10-06T03:52:12.634Z,11.53
2023-10-06T03:57:17.343Z,11.72
2023-10-06T04:02:20.711Z,11.85
2023-10-06T04:07:25.211Z,12.14
2023-10-06T04:12:28.198Z,12.94
2023-10-06T04:17:31.625Z,14.71
2023-10-06T04:22:37.874Z,16.50
2023-10-06T04:27:40.613Z,17.89
2023-10-06T04:32:44.549Z,19.13
2023-10-06T04:37:50.337Z,20.55
2023-10-06T04:42:53.133Z,21.79
2023-10-06T04:47:57.236Z,22.88
2023-10-06T04:52:59.949Z,23.54
2023-10-06T04:58:04.364Z,23.64
2023-10-06T05:03:08.542Z,25.03
2023-10-06T05:08:16.082Z,25.82
2023-10-06T05:13:19.044Z,25.69
2023-10-06T05:18:21.883Z,26.23
2023-10-06T05:23:24.503Z,26.94
2023-10-06T05:28:28.376Z,27.02
2023-10-06T05:33:31.166Z,27.23
2023-10-06T05:38:34.910Z,27.83
2023-10-06T05:43:38.214Z,28.05
2023-10-06T05:48:41.603Z,28.06
2023-10-06T05:53:45.656Z,28.23
2023-10-06T05:58:49.459Z,27.68
2023-10-06T06:03:53.121Z,27.92
2023-10-06T06:08:57.560Z,28.46
2023-10-06T06:14:15.027Z,28.14
2023-10-06T06:19:19.978Z,28.10
2023-10-06T06:24:26.061Z,27.96
2023-10-06T06:29:31.256Z,27.77
2023-10-06T06:34:34.069Z,27.80
2023-10-06T06:39:38.789Z,27.30
2023-10-06T06:44:49.477Z,27.36
2023-10-06T06:49:53.338Z,27.19
2023-10-06T06:54:57.262Z,26.57
2023-10-06T07:00:00.364Z,25.08
2023-10-06T07:05:03.574Z,24.04
2023-10-06T07:10:15.575Z,23.54
2023-10-06T07:15:52.345Z,22.94
2023-10-06T07:20:55.229Z,22.19
2023-10-06T07:25:57.859Z,21.90
2023-10-06T07:31:00.536Z,21.24
2023-10-06T07:36:05.032Z,21.26
2023-10-06T07:41:08.071Z,21.39
2023-10-06T07:46:12.611Z,21.16
2023-10-06T07:51:15.663Z,21.28
2023-10-06T07:56:20.441Z,21.27
2023-10-06T08:01:23.795Z,20.82
2023-10-06T08:06:31.527Z,20.79
2023-10-06T08:11:34.612Z,20.53
2023-10-06T08:16:38.732Z,20.60
2023-10-06T08:21:42.665Z,20.55
2023-10-06T08:26:51.011Z,20.28
2023-10-06T08:31:55.726Z,20.46
2023-10-06T08:37:02.287Z,20.41
2023-10-06T08:42:07.085Z,20.39
2023-10-06T08:47:27.955Z,20.52
2023-10-06T08:52:34.413Z,20.60
2023-10-06T08:57:38.322Z,20.65
2023-10-06T09:02:43.102Z,20.61
2023-10-06T09:08:06.867Z,20.70
2023-10-06T09:13:18.295Z,21.12
2023-10-06T09:18:36.055Z,21.48
2023-10-06T09:23:41.388Z,21.72
2023-10-06T09:28:52.359Z,21.63
2023-10-06T09:33:56.432Z,21.56
2023-10-06T09:39:02.601Z,21.64
2023-10-06T09:44:11.061Z,21.68
2023-10-06T09:49:17.797Z,21.65
2023-10-06T09:54:24.199Z,21.66
2023-10-06T09:59:28.094Z,21.57
2023-10-06T10:04:33.206Z,21.62
2023-10-06T10:09:36.857Z,21.71
2023-10-06T10:14:59.349Z,21.76
2023-10-06T10:20:04.376Z,21.67
2023-10-06T10:30:16.193Z,21.74
2023-10-06T10:35:20.227Z,21.79
2023-10-06T10:40:28.290Z,21.74
2023-10-06T10:45:45.265Z,21.67
2023-10-06T10:50:54.511Z,21.69
2023-10-06T10:55:58.001Z,21.55
2023-10-06T11:01:19.621Z,21.55
2023-10-06T11:06:22.430Z,21.57
2023-10-06T11:11:27.059Z,21.38
2023-10-06T11:16:30.655Z,21.41
2023-10-06T11:21:33.569Z,21.45
2023-10-06T11:26:36.565Z,21.41
2023-10-06T11:31:44.769Z,21.42
2023-10-06T11:36:48.406Z,21.22
2023-10-06T11:41:57.384Z,21.40
2023-10-06T11:47:01.072Z,21.41
2023-10-06T11:52:06.954Z,21.24
2023-10-06T11:57:09.849Z,21.22
2023-10-06T12:02:12.666Z,21.11
2023-10-06T12:07:34.518Z,20.93
2023-10-06T12:12:37.807Z,20.98
2023-10-06T12:17:40.908Z,20.89
2023-10-06T12:22:48.570Z,21.00
2023-10-06T12:27:52.076Z,21.08
2023-10-06T12:32:59.682Z,21.16
2023-10-06T12:38:04.027Z,21.12
2023-10-06T12:43:08.692Z,21.02
2023-10-06T12:48:11.517Z,20.96
2023-10-06T12:53:14.714Z,20.77
2023-10-06T12:58:18.111Z,20.78
2023-10-06T13:03:20.929Z,20.73
2023-10-06T13:08:26.515Z,20.73
2023-10-06T13:13:29.470Z,20.58
2023-10-06T13:18:32.307Z,20.61
2023-10-06T13:23:36.150Z,20.53
2023-10-06T13:28:40.617Z,20.53
2023-10-06T13:33:43.449Z,20.43
2023-10-06T13:38:46.285Z,20.44
2023-10-06T13:43:49.654Z,20.34
2023-10-06T13:48:52.632Z,20.04
2023-10-06T13:53:57.568Z,19.94
2023-10-06T13:59:00.458Z,19.74
2023-10-06T14:04:06.787Z,19.41
2023-10-06T14:09:12.470Z,18.75
2023-10-06T14:14:35.304Z,17.86
2023-10-06T14:19:38.320Z,18.04
2023-10-06T14:24:41.451Z,18.06
2023-10-06T14:29:45.463Z,17.83
2023-10-06T14:34:59.569Z,17.72
2023-10-06T14:40:21.093Z,17.54
2023-10-06T14:45:42.648Z,16.84
2023-10-06T14:50:45.371Z,16.38
2023-10-06T14:55:48.948Z,15.96
2023-10-06T15:00:51.762Z,15.85
2023-10-06T15:05:54.621Z,15.91
2023-10-06T15:11:00.786Z,15.96
2023-10-06T15:16:07.901Z,15.71
2023-10-06T15:21:14.993Z,15.76
2023-10-06T15:26:19.570Z,15.77
2023-10-06T15:31:24.246Z,15.62
2023-10-06T15:36:28.430Z,15.48
2023-10-06T15:41:32.761Z,15.38
2023-10-06T15:46:36.034Z,15.28
2023-10-06T15:51:43.747Z,15.12
2023-10-06T15:56:48.282Z,14.85
2023-10-06T16:01:51.095Z,15.07
2023-10-06T16:06:54.738Z,15.30
2023-10-06T16:11:58.903Z,15.30
2023-10-06T16:17:02.248Z,15.14
2023-10-06T16:32:58.300Z,15.20
2023-10-06T16:38:01.365Z,15.15
2023-10-06T16:43:07.394Z,15.29
2023-10-06T16:48:13.002Z,14.94
2023-10-06T16:53:18.133Z,15.12
2023-10-06T16:58:21.362Z,15.15
2023-10-06T17:03:25.678Z,15.16
2023-10-06T17:08:28.751Z,15.01
2023-10-06T17:13:31.497Z,15.03
2023-10-06T17:18:37.853Z,15.06
2023-10-06T17:23:40.692Z,14.88
2023-10-06T17:28:43.498Z,14.77
2023-10-06T17:33:46.685Z,14.80
2023-10-06T17:38:49.366Z,14.80
2023-10-06T17:43:53.670Z,14.78
2023-10-06T17:48:58.393Z,14.81
2023-10-06T17:54:01.574Z,14.81
2023-10-06T17:59:04.268Z,14.91
2023-10-06T18:04:07.111Z,14.97
2023-10-06T18:09:10.994Z,14.90
2023-10-06T18:14:14.108Z,14.90
2023-10-06T18:19:17.771Z,14.88
2023-10-06T18:24:20.356Z,14.85
2023-10-06T18:29:24.632Z,14.91
2023-10-06T18:34:27.633Z,14.83
2023-10-06T18:39:31.268Z,14.76
2023-10-06T18:44:34.007Z,14.72
2023-10-06T18:49:36.765Z,14.69
2023-10-06T18:54:39.614Z,14.64
2023-10-06T18:59:42.437Z,14.68
2023-10-06T19:04:45.461Z,14.64
2023-10-06T19:09:48.266Z,14.67
2023-10-06T19:14:51.037Z,14.76
2023-10-06T19:19:53.831Z,14.64
2023-10-06T19:24:57.842Z,14.79
2023-10-06T19:30:00.929Z,14.91
2023-10-06T19:35:08.707Z,14.76
2023-10-06T19:40:14.172Z,15.11
2023-10-06T19:45:17.226Z,15.18
2023-10-06T19:50:20.293Z,15.01
2023-10-06T19:55:23.484Z,15.05
2023-10-06T20:00:29.205Z,14.94
2023-10-06T20:05:35.797Z,14.46
2023-10-06T20:10:38.830Z,14.44
2023-10-06T20:15:41.623Z,14.30
2023-10-06T20:20:44.377Z,14.20
2023-10-06T20:25:47.161Z,14.24
2023-10-06T20:30:50.146Z,14.16
2023-10-06T20:35:53.181Z,14.15
2023-10-06T20:40:56.031Z,14.07
2023-10-06T20:46:01.243Z,14.02
2023-10-06T20:51:06.971Z,13.98
2023-10-06T20:56:09.907Z,13.79
2023-10-06T21:01:13.572Z,13.96
2023-10-06T21:06:17.137Z,14.00
2023-10-06T21:11:20.075Z,13.75
2023-10-06T21:16:23.448Z,13.75
2023-10-06T21:21:26.545Z,13.80
2023-10-06T21:26:29.354Z,13.41
2023-10-06T21:31:32.406Z,13.32
2023-10-06T21:36:35.256Z,13.04
2023-10-06T21:41:37.992Z,12.73
2023-10-06T21:46:41.274Z,12.58
2023-10-06T21:51:44.626Z,12.51
2023-10-06T21:56:47.504Z,12.31
2023-10-06T22:01:50.237Z,12.36
2023-10-06T22:06:55.949Z,12.22
2023-10-06T22:12:00.228Z,12.13
2023-10-06T22:17:06.911Z,11.92
2023-10-06T22:22:11.788Z,12.01
2023-10-06T22:27:15.131Z,12.00
2023-10-06T22:32:18.022Z,11.91
2023-10-06T22:37:22.146Z,12.04
2023-10-06T22:42:25.006Z,12.06
2023-10-06T22:47:27.876Z,12.13
2023-10-06T22:52:30.680Z,12.01
2023-10-06T22:57:33.760Z,11.86
2023-10-06T23:02:39.567Z,11.91
2023-10-06T23:07:44.769Z,11.67
2023-10-06T23:12:54.000Z,11.83
2023-10-06T23:17:58.081Z,11.60
2023-10-06T23:23:00.956Z,11.57
2023-10-06T23:28:06.879Z,11.54
2023-10-06T23:33:13.776Z,11.43
2023-10-06T23:38:17.044Z,11.47
2023-10-06T23:43:21.181Z,11.24
2023-10-06T23:48:24.685Z,11.28
2023-10-06T23:53:30.485Z,11.16
2023-10-06T23:58:34.866Z,11.08
